Time;durP1;ratioP1;P1;durP2;ratioP2;P2;SDS_P1;SDS_P2;PMS_P1;PMS_P2;Temp;Humidity;BMP_temperature;BMP_pressure;BME280_temperature;BME280_humidity;BME280_pressure;Samples;Min_cycle;Max_cycle;Signal;HPM_P1;HPM_P2
2021/01/30 00:02:56;;;;;;;51.28;27.30;;;-0.60;99.90;;;;;;5075161;28;20117;-94
2021/01/30 00:05:40;;;;;;;51.33;27.15;;;-0.50;99.90;;;;;;5085018;28;20202;-91
2021/01/30 00:08:42;;;;;;;60.47;31.65;;;-0.60;99.90;;;;;;5008018;28;20132;-90
2021/01/30 00:11:47;;;;;;;53.87;28.83;;;-0.60;99.90;;;;;;5073053;28;20103;-95
2021/01/30 00:14:45;;;;;;;50.60;28.08;;;-0.60;99.90;;;;;;5082554;28;20107;-92
2021/01/30 00:17:45;;;;;;;55.78;29.12;;;-0.60;99.90;;;;;;5034000;28;20100;-91
2021/01/30 00:20:32;;;;;;;54.72;29.40;;;-0.60;99.90;;;;;;5081079;28;20158;-94
2021/01/30 00:23:18;;;;;;;57.10;29.20;;;-0.60;99.90;;;;;;5087641;28;20428;-91
2021/01/30 00:26:21;;;;;;;64.12;31.10;;;-0.60;99.90;;;;;;5077284;28;20112;-91
2021/01/30 00:29:04;;;;;;;55.90;28.73;;;-0.70;99.90;;;;;;5046917;28;20185;-91
2021/01/30 00:32:03;;;;;;;58.25;29.17;;;-0.70;99.90;;;;;;5091652;28;20091;-90
2021/01/30 00:35:13;;;;;;;51.42;26.62;;;-0.70;99.90;;;;;;5054496;28;20105;-90
2021/01/30 00:38:14;;;;;;;59.55;28.98;;;-0.70;99.90;;;;;;5060064;28;20088;-94
2021/01/30 00:40:57;;;;;;;50.33;28.62;;;-0.70;99.90;;;;;;5103619;28;20080;-90
2021/01/30 00:44:09;;;;;;;45.30;24.63;;;-0.70;99.90;;;;;;5076524;28;20538;-89
2021/01/30 00:46:52;;;;;;;44.10;25.10;;;-0.70;99.90;;;;;;5063906;28;20089;-92
2021/01/30 00:50:00;;;;;;;49.28;26.00;;;-0.70;99.90;;;;;;5012622;28;20093;-92
2021/01/30 00:53:02;;;;;;;51.83;26.67;;;-0.80;99.90;;;;;;5041349;28;20478;-90
2021/01/30 00:55:58;;;;;;;54.30;28.33;;;-0.70;99.90;;;;;;5048704;28;20390;-91
2021/01/30 00:58:56;;;;;;;46.97;24.58;;;-0.70;99.90;;;;;;5033734;28;20179;-90
2021/01/30 01:01:57;;;;;;;61.67;30.33;;;-0.70;99.90;;;;;;4995743;28;20434;-89
2021/01/30 01:04:56;;;;;;;61.50;29.33;;;-0.70;99.90;;;;;;5038650;28;20097;-89
2021/01/30 01:07:56;;;;;;;60.10;31.37;;;-0.70;99.90;;;;;;5055320;28;20101;-91
2021/01/30 01:10:38;;;;;;;57.50;29.70;;;-0.80;99.90;;;;;;5091633;28;20162;-89
2021/01/30 01:13:34;;;;;;;56.60;29.63;;;-0.70;99.90;;;;;;5058529;28;20096;-90
2021/01/30 01:16:33;;;;;;;65.70;30.95;;;-0.80;99.90;;;;;;5046236;28;20136;-90
2021/01/30 01:19:34;;;;;;;52.33;27.62;;;-0.70;99.90;;;;;;5057425;28;20137;-90
2021/01/30 01:22:17;;;;;;;59.97;31.37;;;-0.70;99.90;;;;;;5048153;28;20108;-88
2021/01/30 01:25:04;;;;;;;57.75;29.60;;;-0.70;99.90;;;;;;5027932;28;20088;-88
2021/01/30 01:28:04;;;;;;;58.65;29.73;;;-0.70;99.90;;;;;;5047731;28;20107;-91
2021/01/30 01:30:46;;;;;;;56.35;26.92;;;-0.70;99.90;;;;;;5044895;28;20167;-89
2021/01/30 01:33:44;;;;;;;57.97;29.00;;;-0.80;99.90;;;;;;5058640;28;20370;-92
2021/01/30 01:36:27;;;;;;;55.15;28.67;;;-0.80;99.90;;;;;;5055300;28;20105;-92
2021/01/30 01:39:33;;;;;;;51.30;26.73;;;-0.70;99.90;;;;;;5039378;28;20115;-92
2021/01/30 01:42:24;;;;;;;54.95;26.62;;;-0.70;99.90;;;;;;5047536;28;20570;-90
2021/01/30 01:45:21;;;;;;;48.25;25.95;;;-0.80;99.90;;;;;;5062840;28;20111;-89
2021/01/30 01:48:05;;;;;;;45.53;24.23;;;-0.80;99.90;;;;;;5044853;28;20096;-93
2021/01/30 01:50:57;;;;;;;38.85;20.95;;;-0.80;99.90;;;;;;5016244;28;20149;-92
2021/01/30 01:53:40;;;;;;;39.28;21.73;;;-0.80;99.90;;;;;;5101508;28;20092;-89
2021/01/30 01:56:38;;;;;;;41.47;19.25;;;-0.80;99.90;;;;;;5036235;28;20207;-89
2021/01/30 01:59:38;;;;;;;43.83;21.20;;;-0.80;99.90;;;;;;5044011;28;20097;-90
2021/01/30 02:02:37;;;;;;;38.97;19.42;;;-0.90;99.90;;;;;;5079972;28;20114;-92
2021/01/30 02:05:38;;;;;;;41.08;20.20;;;-0.90;99.90;;;;;;5045682;28;20096;-89
2021/01/30 02:08:23;;;;;;;46.47;22.92;;;-0.90;99.90;;;;;;5071096;28;20207;-88
2021/01/30 02:11:23;;;;;;;44.78;22.05;;;-0.90;99.90;;;;;;5048233;28;20085;-88
2021/01/30 02:14:08;;;;;;;41.85;20.35;;;-1.00;99.90;;;;;;5061227;28;20157;-92
2021/01/30 02:17:11;;;;;;;42.75;20.62;;;-0.90;99.90;;;;;;5044009;28;20399;-92
2021/01/30 02:20:05;;;;;;;41.70;20.52;;;-1.00;99.90;;;;;;5062706;28;20092;-91
2021/01/30 02:23:09;;;;;;;41.08;21.52;;;-1.00;99.90;;;;;;5042583;28;20109;-88
2021/01/30 02:26:16;;;;;;;52.78;24.73;;;-0.90;99.90;;;;;;5064613;28;20098;-92
2021/01/30 02:29:32;;;;;;;44.92;22.73;;;-1.00;99.90;;;;;;5059991;28;20528;-90
2021/01/30 02:32:46;;;;;;;49.90;26.10;;;-1.00;99.90;;;;;;5077474;28;20085;-90
2021/01/30 02:36:22;;;;;;;49.95;25.02;;;-1.00;99.90;;;;;;5029491;28;20100;-88
2021/01/30 02:39:16;;;;;;;47.33;25.88;;;-1.00;99.90;;;;;;5060766;28;20104;-91
2021/01/30 02:42:26;;;;;;;47.45;25.15;;;-1.00;99.90;;;;;;5039849;28;20220;-88
2021/01/30 02:45:12;;;;;;;50.63;27.50;;;-1.00;99.90;;;;;;5044453;28;20107;-90
2021/01/30 02:48:21;;;;;;;58.15;30.00;;;-1.00;99.90;;;;;;5038379;28;20133;-89
2021/01/30 02:51:05;;;;;;;56.37;29.27;;;-1.00;99.90;;;;;;5066126;28;20166;-91
2021/01/30 02:53:56;;;;;;;53.50;27.37;;;-1.00;99.90;;;;;;5080757;28;20089;-89
2021/01/30 02:56:56;;;;;;;64.85;31.62;;;-1.00;99.90;;;;;;5045582;28;20092;-90
2021/01/30 02:59:45;;;;;;;65.12;32.15;;;-1.00;99.90;;;;;;5060729;28;20100;-90
2021/01/30 03:02:45;;;;;;;61.25;33.22;;;-1.00;99.90;;;;;;5022804;28;20089;-92
2021/01/30 03:05:46;;;;;;;67.60;33.70;;;-1.00;99.90;;;;;;5051823;28;20435;-89
2021/01/30 03:08:45;;;;;;;73.82;34.88;;;-1.10;99.90;;;;;;5051985;28;20171;-91
2021/01/30 03:11:30;;;;;;;70.65;36.53;;;-1.10;99.90;;;;;;5026612;28;20111;-88
2021/01/30 03:14:29;;;;;;;65.28;35.65;;;-1.10;99.90;;;;;;5015265;28;20104;-92
2021/01/30 03:17:08;;;;;;;69.65;35.10;;;-1.10;99.90;;;;;;5022437;28;20151;-92
2021/01/30 03:20:06;;;;;;;73.12;36.80;;;-1.10;99.90;;;;;;5041010;28;20093;-89
2021/01/30 03:22:48;;;;;;;69.97;36.22;;;-1.10;99.90;;;;;;5064839;28;20096;-88
2021/01/30 03:25:45;;;;;;;78.20;38.03;;;-1.10;99.90;;;;;;5011794;28;20394;-88
2021/01/30 03:28:42;;;;;;;77.90;39.15;;;-1.10;99.90;;;;;;5062818;28;20103;-89
2021/01/30 03:31:40;;;;;;;78.78;37.90;;;-1.20;99.90;;;;;;5067081;28;20088;-90
2021/01/30 03:34:19;;;;;;;84.97;41.00;;;-1.10;99.90;;;;;;5036166;28;20105;-91
2021/01/30 03:37:11;;;;;;;82.82;41.95;;;-1.10;99.90;;;;;;5037665;28;20089;-92
2021/01/30 03:40:06;;;;;;;80.35;40.35;;;-1.20;99.90;;;;;;5058751;28;20103;-91
2021/01/30 03:42:48;;;;;;;82.37;43.13;;;-1.20;99.90;;;;;;4745463;28;20485;-92
2021/01/30 03:45:29;;;;;;;90.03;43.72;;;-1.20;99.90;;;;;;5050379;28;20087;-92
2021/01/30 03:48:26;;;;;;;81.00;40.05;;;-1.20;99.90;;;;;;4984673;28;20175;-89
2021/01/30 03:51:08;;;;;;;87.37;44.63;;;-1.20;99.90;;;;;;5040294;28;20100;-91
2021/01/30 03:53:58;;;;;;;82.07;41.92;;;-1.20;99.90;;;;;;5061159;28;20104;-88
2021/01/30 03:56:44;;;;;;;85.80;43.97;;;-1.20;99.90;;;;;;5017568;28;20093;-92
2021/01/30 03:59:42;;;;;;;89.43;44.15;;;-1.20;99.90;;;;;;5058042;28;20497;-91
2021/01/30 04:02:21;;;;;;;85.10;44.38;;;-1.20;99.90;;;;;;5047292;28;20477;-92
2021/01/30 04:05:18;;;;;;;82.30;43.47;;;-1.20;99.90;;;;;;5047423;28;20140;-91
2021/01/30 04:07:57;;;;;;;79.72;41.15;;;-1.20;99.90;;;;;;5065442;28;20098;-89
2021/01/30 04:10:54;;;;;;;87.20;42.35;;;-1.20;99.90;;;;;;5050765;28;20089;-88
2021/01/30 04:13:36;;;;;;;76.90;43.22;;;-1.20;99.90;;;;;;5084439;28;20107;-89
2021/01/30 04:16:33;;;;;;;85.78;44.33;;;-1.20;99.90;;;;;;5025836;28;20104;-93
2021/01/30 04:19:14;;;;;;;80.50;41.88;;;-1.20;99.90;;;;;;5055539;28;20103;-89
2021/01/30 04:22:12;;;;;;;84.35;43.80;;;-1.20;99.90;;;;;;5024520;28;20163;-92
2021/01/30 04:24:54;;;;;;;86.72;43.90;;;-1.30;99.90;;;;;;5040460;28;20132;-91
2021/01/30 04:27:52;;;;;;;85.62;45.80;;;-1.20;99.90;;;;;;5031277;28;20089;-89
2021/01/30 04:30:34;;;;;;;84.15;41.72;;;-1.30;99.90;;;;;;5065028;28;20121;-92
2021/01/30 04:33:32;;;;;;;81.70;41.92;;;-1.30;99.90;;;;;;5027525;28;20095;-89
2021/01/30 04:36:14;;;;;;;76.62;41.78;;;-1.30;99.90;;;;;;5006718;28;20105;-93
2021/01/30 04:39:13;;;;;;;80.20;40.10;;;-1.30;99.90;;;;;;5075759;28;20111;-89
2021/01/30 04:42:10;;;;;;;75.62;39.40;;;-1.30;99.90;;;;;;5035997;28;20088;-92
2021/01/30 04:45:37;;;;;;;71.72;40.95;;;-1.20;99.90;;;;;;5050670;28;20140;-89
2021/01/30 04:49:03;;;;;;;64.95;34.22;;;-1.20;99.90;;;;;;5060884;28;20092;-91
2021/01/30 04:52:09;;;;;;;61.17;31.55;;;-1.30;99.90;;;;;;5018454;28;20141;-90
2021/01/30 04:55:00;;;;;;;54.38;28.77;;;-1.30;99.90;;;;;;5096055;28;20144;-89
2021/01/30 04:58:19;;;;;;;57.10;29.45;;;-1.30;99.90;;;;;;5075941;28;20837;-89
2021/01/30 05:01:13;;;;;;;57.53;30.85;;;-1.30;99.90;;;;;;5087815;28;20424;-91
2021/01/30 05:04:19;;;;;;;59.88;31.87;;;-1.40;99.90;;;;;;5028352;28;20175;-91
2021/01/30 05:07:19;;;;;;;67.65;33.78;;;-1.30;99.90;;;;;;5064273;28;20088;-92
2021/01/30 05:10:28;;;;;;;63.22;33.00;;;-1.30;99.90;;;;;;5043049;28;20104;-93
2021/01/30 05:13:20;;;;;;;85.57;39.88;;;-1.30;99.90;;;;;;5078413;28;20378;-90
2021/01/30 05:16:19;;;;;;;74.82;36.70;;;-1.30;99.90;;;;;;5049932;28;20089;-89
2021/01/30 05:19:11;;;;;;;71.50;37.72;;;-1.30;99.90;;;;;;5036678;28;20494;-91
2021/01/30 05:22:04;;;;;;;57.83;29.47;;;-1.30;99.90;;;;;;5067102;28;20087;-92
2021/01/30 05:24:46;;;;;;;56.92;29.67;;;-1.30;99.90;;;;;;5107207;28;20103;-90
2021/01/30 05:27:47;;;;;;;59.75;30.05;;;-1.30;99.90;;;;;;5025690;28;20085;-89
2021/01/30 05:30:34;;;;;;;53.53;29.12;;;-1.40;99.90;;;;;;5118502;28;20091;-88
2021/01/30 05:33:56;;;;;;;53.63;28.90;;;-1.40;99.90;;;;;;5059876;28;20084;-89
2021/01/30 05:36:51;;;;;;;59.28;31.98;;;-1.40;99.90;;;;;;5110282;28;20204;-91
2021/01/30 05:40:14;;;;;;;60.10;32.10;;;-1.40;99.90;;;;;;5041079;28;20085;-92
2021/01/30 05:43:05;;;;;;;71.22;37.65;;;-1.50;99.90;;;;;;5038919;28;20653;-89
2021/01/30 05:46:02;;;;;;;79.45;41.80;;;-1.40;99.90;;;;;;5037052;28;20092;-90
2021/01/30 05:48:45;;;;;;;91.35;48.70;;;-1.40;99.90;;;;;;5051054;28;20089;-90
2021/01/30 05:51:47;;;;;;;93.60;46.25;;;-1.50;99.90;;;;;;5056188;28;20088;-89
2021/01/30 05:54:29;;;;;;;68.68;33.90;;;-1.50;99.90;;;;;;5046755;28;20102;-90
2021/01/30 05:57:21;;;;;;;62.95;27.60;;;-1.50;99.90;;;;;;5050874;28;20144;-90
2021/01/30 06:00:00;;;;;;;49.00;25.02;;;-1.60;99.90;;;;;;5025655;28;20126;-88
2021/01/30 06:03:05;;;;;;;30.08;15.20;;;-1.60;99.90;;;;;;5039710;28;20089;-91
2021/01/30 06:05:51;;;;;;;27.65;12.40;;;-1.60;99.90;;;;;;5124292;28;20091;-88
2021/01/30 06:08:57;;;;;;;17.70;10.52;;;-1.60;99.90;;;;;;5046986;28;20092;-91
2021/01/30 06:11:49;;;;;;;20.08;8.90;;;-1.70;99.90;;;;;;5053040;28;20195;-90
2021/01/30 06:14:44;;;;;;;21.67;10.75;;;-1.70;99.90;;;;;;5046910;28;20088;-90
2021/01/30 06:17:26;;;;;;;22.73;10.50;;;-1.80;99.90;;;;;;5043211;28;20520;-91
2021/01/30 06:20:23;;;;;;;24.98;11.75;;;-1.80;99.90;;;;;;5061849;28;20088;-89
2021/01/30 06:23:05;;;;;;;32.33;13.95;;;-1.80;99.90;;;;;;5077024;28;20516;-90
2021/01/30 06:26:19;;;;;;;22.83;11.40;;;-1.90;99.90;;;;;;5099734;28;20500;-91
2021/01/30 06:29:03;;;;;;;24.48;12.07;;;-1.90;99.90;;;;;;5046213;28;20161;-88
2021/01/30 06:32:13;;;;;;;22.85;12.37;;;-2.00;99.90;;;;;;5047600;28;20104;-89
2021/01/30 06:35:05;;;;;;;20.52;10.15;;;-2.00;99.90;;;;;;5099646;28;20550;-89
2021/01/30 06:38:20;;;;;;;26.73;12.35;;;-2.00;99.90;;;;;;5020413;28;20089;-88
2021/01/30 06:41:03;;;;;;;26.27;13.18;;;-2.00;99.90;;;;;;5093578;28;20468;-88
2021/01/30 06:44:15;;;;;;;24.10;11.12;;;-2.10;99.90;;;;;;5046346;28;20115;-88
2021/01/30 06:47:16;;;;;;;24.48;10.55;;;-2.10;99.90;;;;;;5061942;28;20174;-91
2021/01/30 06:50:37;;;;;;;27.27;13.85;;;-2.10;99.90;;;;;;5086393;28;20110;-92
2021/01/30 06:53:23;;;;;;;31.40;15.65;;;-2.10;99.90;;;;;;5054113;28;20097;-90
2021/01/30 06:56:19;;;;;;;33.85;16.12;;;-2.10;99.90;;;;;;5066141;28;20137;-91
2021/01/30 06:59:04;;;;;;;35.15;18.12;;;-2.10;99.90;;;;;;5102179;28;20153;-91
2021/01/30 07:02:01;;;;;;;31.02;15.30;;;-2.10;99.90;;;;;;5058297;28;20089;-90
2021/01/30 07:04:48;;;;;;;36.88;17.77;;;-2.10;99.90;;;;;;5059988;28;20171;-93
2021/01/30 07:07:52;;;;;;;31.23;17.33;;;-2.10;99.90;;;;;;5085229;28;20526;-90
2021/01/30 07:10:43;;;;;;;40.67;21.33;;;-2.10;99.90;;;;;;5076553;28;20111;-92
2021/01/30 07:13:59;;;;;;;47.38;24.23;;;-2.10;99.90;;;;;;5074693;28;20144;-93
2021/01/30 07:16:59;;;;;;;46.42;24.95;;;-2.10;99.90;;;;;;5110260;28;20111;-90
2021/01/30 07:20:19;;;;;;;49.85;23.60;;;-2.10;99.90;;;;;;5037011;28;20089;-93
2021/01/30 07:23:30;;;;;;;49.80;25.65;;;-2.00;99.90;;;;;;5094271;28;20143;-89
2021/01/30 07:26:44;;;;;;;48.35;24.20;;;-2.10;99.90;;;;;;5040408;28;20085;-93
2021/01/30 07:29:51;;;;;;;50.30;27.85;;;-2.00;99.90;;;;;;5034699;28;20093;-91
2021/01/30 07:32:59;;;;;;;45.63;23.75;;;-2.00;99.90;;;;;;5016923;28;20236;-88
2021/01/30 07:35:52;;;;;;;46.45;23.90;;;-2.00;99.90;;;;;;5056809;28;20354;-93
2021/01/30 07:39:02;;;;;;;51.70;25.33;;;-2.00;99.90;;;;;;5063675;28;20147;-92
2021/01/30 07:42:00;;;;;;;54.58;27.55;;;-2.00;99.90;;;;;;5049203;28;20100;-89
2021/01/30 07:45:02;;;;;;;59.80;31.17;;;-2.00;99.90;;;;;;5043989;28;20617;-88
2021/01/30 07:47:58;;;;;;;60.90;32.25;;;-1.90;99.90;;;;;;5090748;28;20089;-91
2021/01/30 07:50:54;;;;;;;63.58;30.17;;;-1.90;99.90;;;;;;5007170;28;20529;-88
2021/01/30 07:53:36;;;;;;;62.10;33.42;;;-1.90;99.90;;;;;;5060774;28;20486;-90
2021/01/30 07:56:56;;;;;;;75.07;35.03;;;-1.90;99.90;;;;;;5072995;28;20088;-89
2021/01/30 07:59:57;;;;;;;73.20;36.75;;;-1.90;99.90;;;;;;5052947;28;20144;-92
2021/01/30 08:02:50;;;;;;;73.95;36.55;;;-1.80;99.90;;;;;;5061952;28;20085;-90
2021/01/30 08:05:57;;;;;;;83.75;38.80;;;-1.70;99.90;;;;;;5038609;28;20199;-89
2021/01/30 08:08:52;;;;;;;90.22;42.42;;;-1.70;99.90;;;;;;5121115;28;20084;-91
2021/01/30 08:11:59;;;;;;;88.60;41.72;;;-1.70;99.90;;;;;;5072551;28;20097;-90
2021/01/30 08:14:53;;;;;;;89.22;44.58;;;-1.60;99.90;;;;;;5054987;28;20100;-92
2021/01/30 08:17:58;;;;;;;92.77;46.13;;;-1.60;99.90;;;;;;5043031;28;20101;-89
2021/01/30 08:21:01;;;;;;;92.03;48.70;;;-1.60;99.90;;;;;;5054968;28;20100;-89
2021/01/30 08:24:00;;;;;;;90.53;47.10;;;-1.60;99.90;;;;;;5006673;28;20105;-87
2021/01/30 08:26:44;;;;;;;98.70;49.95;;;-1.60;99.90;;;;;;5059548;28;20092;-87
2021/01/30 08:29:44;;;;;;;102.32;50.92;;;-1.60;99.90;;;;;;5026570;28;20103;-92
2021/01/30 08:32:23;;;;;;;109.80;52.58;;;-1.50;99.90;;;;;;5062896;28;20151;-90
2021/01/30 08:35:21;;;;;;;111.25;56.05;;;-1.50;99.90;;;;;;5042011;28;20178;-88
2021/01/30 08:38:15;;;;;;;117.10;53.13;;;-1.40;99.90;;;;;;5056578;28;20146;-90
2021/01/30 08:41:23;;;;;;;103.65;52.83;;;-1.40;99.90;;;;;;5093099;28;20100;-86
2021/01/30 08:44:04;;;;;;;101.93;50.97;;;-1.40;99.90;;;;;;4750730;28;21008;-86
2021/01/30 08:47:15;;;;;;;95.62;47.85;;;-1.30;99.90;;;;;;4975224;28;20116;-90
2021/01/30 08:49:56;;;;;;;92.75;45.90;;;-1.30;99.90;;;;;;5095507;28;20182;-87
2021/01/30 08:52:56;;;;;;;88.97;43.10;;;-1.30;99.90;;;;;;5091875;28;20162;-90
2021/01/30 08:55:56;;;;;;;85.07;43.60;;;-1.20;99.90;;;;;;5022171;28;20092;-88
2021/01/30 08:58:55;;;;;;;85.15;43.65;;;-1.20;99.90;;;;;;5068059;28;20089;-91
2021/01/30 09:01:37;;;;;;;82.80;42.45;;;-1.10;99.90;;;;;;5055809;28;20093;-89
2021/01/30 09:05:01;;;;;;;78.47;42.33;;;-1.10;99.90;;;;;;5038924;28;20103;-88
2021/01/30 09:07:49;;;;;;;84.22;41.95;;;-1.10;99.90;;;;;;5053849;28;20453;-88
2021/01/30 09:10:47;;;;;;;76.65;39.42;;;-1.10;99.90;;;;;;5075507;28;20101;-88
2021/01/30 09:13:27;;;;;;;69.93;37.42;;;-1.10;99.90;;;;;;5076475;28;20452;-89
2021/01/30 09:16:21;;;;;;;74.82;39.45;;;-1.20;99.90;;;;;;5035827;28;20092;-89
2021/01/30 09:20:04;;;;;;;72.85;36.80;;;-1.10;99.90;;;;;;4995963;28;20089;-88
2021/01/30 09:23:46;;;;;;;67.93;35.33;;;-1.10;99.90;;;;;;5065316;28;20104;-87
2021/01/30 09:27:10;;;;;;;67.55;36.25;;;-1.10;99.90;;;;;;5079185;28;20092;-87
2021/01/30 09:30:33;;;;;;;69.18;36.67;;;-1.10;99.90;;;;;;5024561;28;20140;-89
2021/01/30 09:33:33;;;;;;;72.62;38.63;;;-1.10;99.90;;;;;;5097216;28;20096;-87
2021/01/30 09:36:48;;;;;;;69.32;36.83;;;-1.00;99.90;;;;;;5057796;28;20085;-87
2021/01/30 09:39:42;;;;;;;68.32;36.10;;;-1.00;99.90;;;;;;5016616;28;20100;-86
2021/01/30 09:42:43;;;;;;;66.47;34.55;;;-0.90;99.90;;;;;;5067385;28;20162;-87
2021/01/30 09:45:24;;;;;;;66.18;34.65;;;-0.90;99.90;;;;;;5045249;28;20084;-89
2021/01/30 09:48:17;;;;;;;62.80;34.10;;;-0.80;99.90;;;;;;5070319;28;20080;-89
2021/01/30 09:51:15;;;;;;;59.63;31.23;;;-0.60;99.90;;;;;;5055803;28;20399;-89
2021/01/30 09:54:15;;;;;;;63.53;33.15;;;-0.60;99.90;;;;;;5041617;28;20093;-89
2021/01/30 09:57:29;;;;;;;71.37;36.63;;;-0.50;99.90;;;;;;5048009;28;20391;-88
2021/01/30 10:00:31;;;;;;;62.60;33.50;;;-0.30;99.90;;;;;;5019154;28;20093;-89
2021/01/30 10:03:35;;;;;;;61.33;34.38;;;-0.20;99.90;;;;;;5040823;28;20096;-89
2021/01/30 10:06:18;;;;;;;61.25;32.08;;;-0.20;99.90;;;;;;5017305;28;20124;-89
2021/01/30 10:09:24;;;;;;;55.22;31.23;;;-0.20;99.90;;;;;;5044992;28;20105;-88
2021/01/30 10:12:08;;;;;;;55.50;29.48;;;-0.20;99.90;;;;;;5087836;28;20080;-88
2021/01/30 10:15:02;;;;;;;54.33;28.10;;;-0.20;99.90;;;;;;5057671;28;20093;-89
2021/01/30 10:17:42;;;;;;;54.38;29.35;;;-0.10;99.90;;;;;;5065134;28;20100;-88
2021/01/30 10:20:48;;;;;;;51.45;28.23;;;-0.10;99.90;;;;;;5040717;28;20089;-89
2021/01/30 10:23:30;;;;;;;50.12;30.00;;;-0.10;99.90;;;;;;5106896;28;20105;-89
2021/01/30 10:26:25;;;;;;;52.53;28.50;;;0.00;99.90;;;;;;5095288;28;20119;-88
2021/01/30 10:29:11;;;;;;;47.88;28.23;;;0.00;99.90;;;;;;5045203;28;20105;-89
2021/01/30 10:32:14;;;;;;;48.15;26.75;;;0.00;99.90;;;;;;5051190;28;20093;-89
2021/01/30 10:35:46;;;;;;;46.58;26.52;;;0.10;99.90;;;;;;5053692;28;20111;-89
2021/01/30 10:38:43;;;;;;;44.97;24.55;;;0.10;99.90;;;;;;5062647;28;20099;-90
2021/01/30 10:41:23;;;;;;;50.33;27.58;;;0.00;99.90;;;;;;5075126;28;20093;-90
2021/01/30 10:44:34;;;;;;;51.10;27.85;;;0.00;99.90;;;;;;4981532;28;20105;-89
2021/01/30 10:47:13;;;;;;;;;;;0.00;99.90;;;;;;5064885;28;20083;-88
2021/01/30 10:50:24;;;;;;;48.33;26.15;;;0.00;99.90;;;;;;5055793;28;19997;-90
2021/01/30 10:53:22;;;;;;;47.47;25.33;;;0.00;99.90;;;;;;5032589;28;20108;-89
2021/01/30 10:56:23;;;;;;;54.95;29.17;;;0.00;99.90;;;;;;5057095;28;20190;-88
2021/01/30 10:59:02;;;;;;;53.42;28.30;;;0.00;99.90;;;;;;5035855;28;20141;-90
2021/01/30 11:01:58;;;;;;;54.63;30.23;;;0.00;99.90;;;;;;5035978;28;20109;-89
2021/01/30 11:04:39;;;;;;;52.97;27.87;;;-0.10;99.90;;;;;;5094000;28;20110;-90
2021/01/30 11:07:52;;;;;;;59.83;31.92;;;-0.20;99.90;;;;;;5059807;28;20148;-86
2021/01/30 11:10:43;;;;;;;57.80;32.53;;;-0.20;99.90;;;;;;5017896;28;20105;-90
2021/01/30 11:13:43;;;;;;;60.10;33.10;;;-0.20;99.90;;;;;;5042936;28;20086;-90
2021/01/30 11:16:33;;;;;;;53.83;29.65;;;-0.10;99.90;;;;;;5052709;28;20470;-89
2021/01/30 11:19:31;;;;;;;53.63;29.00;;;0.00;99.90;;;;;;5075968;28;20184;-90
2021/01/30 11:22:17;;;;;;;52.10;28.87;;;0.10;99.90;;;;;;5084003;28;20144;-89
2021/01/30 11:25:14;;;;;;;56.78;29.30;;;0.40;99.90;;;;;;5035257;28;20109;-89
2021/01/30 11:27:54;;;;;;;55.35;29.10;;;0.40;99.90;;;;;;5043412;28;20135;-87
2021/01/30 11:30:41;;;;;;;55.42;28.67;;;0.40;99.90;;;;;;5045633;28;20096;-92
2021/01/30 11:33:43;;;;;;;48.30;26.98;;;0.30;99.90;;;;;;5038796;28;20148;-92
2021/01/30 11:36:25;;;;;;;46.00;25.02;;;0.80;99.90;;;;;;5058900;28;20425;-91
2021/01/30 11:39:27;;;;;;;41.97;23.62;;;0.80;99.90;;;;;;5058223;28;20493;-89
2021/01/30 11:42:09;;;;;;;40.83;22.05;;;1.00;99.90;;;;;;5058822;28;20252;-91
2021/01/30 11:45:07;;;;;;;43.05;24.48;;;0.90;99.90;;;;;;5082063;28;20096;-91
2021/01/30 11:47:58;;;;;;;43.42;25.60;;;0.90;99.90;;;;;;5038700;28;20509;-89
2021/01/30 11:50:53;;;;;;;42.42;24.33;;;0.80;99.90;;;;;;5003118;28;20089;-89
2021/01/30 11:53:35;;;;;;;41.90;23.62;;;0.90;99.90;;;;;;5066277;28;20096;-89
2021/01/30 11:56:33;;;;;;;41.08;23.85;;;0.80;99.90;;;;;;5026626;28;20200;-88
2021/01/30 11:59:15;;;;;;;38.67;20.02;;;0.80;99.90;;;;;;5040640;28;20108;-89
2021/01/30 12:02:17;;;;;;;37.08;23.23;;;0.80;99.90;;;;;;5038558;28;20144;-92
2021/01/30 12:05:14;;;;;;;40.12;22.08;;;0.80;99.90;;;;;;5030459;28;20104;-88
2021/01/30 12:07:57;;;;;;;38.25;22.23;;;0.70;99.90;;;;;;5044286;28;20108;-88
2021/01/30 12:10:55;;;;;;;42.65;23.48;;;0.60;99.90;;;;;;5060421;28;20089;-91
2021/01/30 12:13:37;;;;;;;41.92;22.27;;;0.60;99.90;;;;;;5076617;28;20154;-91
2021/01/30 12:16:32;;;;;;;40.47;23.25;;;0.60;99.90;;;;;;4992897;28;20101;-89
2021/01/30 12:19:11;;;;;;;38.10;20.05;;;0.70;99.90;;;;;;5061327;28;20085;-88
2021/01/30 12:22:01;;;;;;;29.90;17.00;;;1.00;99.90;;;;;;5028574;28;20129;-89
2021/01/30 12:25:18;;;;;;;28.10;16.52;;;1.10;99.90;;;;;;5062285;28;20140;-87
2021/01/30 12:28:03;;;;;;;31.37;17.87;;;0.90;99.90;;;;;;5065462;28;20092;-86
2021/01/30 12:31:02;;;;;;;32.05;19.17;;;0.90;99.90;;;;;;5051057;28;20501;-87
2021/01/30 12:33:42;;;;;;;36.70;21.35;;;0.80;99.90;;;;;;5056025;28;20101;-90
2021/01/30 12:36:37;;;;;;;36.10;21.25;;;0.80;99.90;;;;;;5041869;28;20088;-87
2021/01/30 12:39:20;;;;;;;36.88;20.48;;;0.70;99.90;;;;;;5117380;28;20096;-90
2021/01/30 12:42:14;;;;;;;40.53;20.55;;;0.70;99.90;;;;;;5058785;28;20116;-90
2021/01/30 12:44:53;;;;;;;50.15;30.70;;;0.70;99.90;;;;;;5060295;28;20093;-91
2021/01/30 12:47:51;;;;;;;32.20;19.65;;;0.60;99.90;;;;;;5036538;28;20100;-91
2021/01/30 12:50:33;;;;;;;32.70;19.02;;;0.70;99.90;;;;;;5079616;28;20096;-87
2021/01/30 12:53:30;;;;;;;35.25;21.12;;;0.70;99.90;;;;;;5033835;28;20163;-91
2021/01/30 12:56:12;;;;;;;30.98;18.98;;;0.70;99.90;;;;;;5082095;28;20183;-91
2021/01/30 12:59:33;;;;;;;29.90;18.50;;;0.80;99.90;;;;;;5045663;28;20462;-88
2021/01/30 13:02:17;;;;;;;29.77;16.37;;;0.80;99.90;;;;;;5087262;28;20091;-89
2021/01/30 13:05:10;;;;;;;26.40;14.85;;;0.90;99.90;;;;;;5061597;28;20496;-87
2021/01/30 13:07:51;;;;;;;22.48;14.35;;;1.00;99.90;;;;;;5096886;28;20088;-87
2021/01/30 13:10:46;;;;;;;25.37;15.80;;;1.00;99.90;;;;;;5056799;28;20552;-85
2021/01/30 13:13:28;;;;;;;28.10;16.90;;;0.90;99.90;;;;;;5113207;28;20140;-86
2021/01/30 13:16:20;;;;;;;27.42;16.60;;;0.90;99.90;;;;;;5043735;28;20107;-88
2021/01/30 13:19:03;;;;;;;29.70;17.30;;;0.90;99.90;;;;;;5058865;28;20132;-89
2021/01/30 13:21:58;;;;;;;26.10;15.90;;;0.80;99.90;;;;;;5057441;28;20088;-90
2021/01/30 13:24:42;;;;;;;28.55;17.12;;;0.80;99.90;;;;;;4745875;28;20104;-90
2021/01/30 13:27:38;;;;;;;32.83;19.10;;;0.80;99.90;;;;;;5096962;28;20099;-87
2021/01/30 13:30:25;;;;;;;33.25;20.02;;;0.70;99.90;;;;;;5100243;28;20107;-90
2021/01/30 13:33:17;;;;;;;34.08;20.70;;;0.80;99.90;;;;;;5102910;28;20088;-89
2021/01/30 13:35:58;;;;;;;35.85;22.17;;;0.70;99.90;;;;;;5041973;28;20097;-86
2021/01/30 13:38:55;;;;;;;31.35;18.73;;;0.70;99.90;;;;;;5029872;28;20121;-88
2021/01/30 13:41:34;;;;;;;32.67;20.42;;;0.70;99.90;;;;;;5050758;28;20360;-87
2021/01/30 13:44:28;;;;;;;31.75;18.77;;;0.70;99.90;;;;;;5046110;28;20144;-87
2021/01/30 13:47:10;;;;;;;24.48;14.57;;;0.70;99.90;;;;;;5092096;28;20166;-88
2021/01/30 13:50:06;;;;;;;21.92;13.30;;;0.60;99.90;;;;;;5042854;28;20108;-87
2021/01/30 13:52:49;;;;;;;20.67;13.23;;;0.60;99.90;;;;;;5045639;28;20103;-88
2021/01/30 13:56:11;;;;;;;23.62;14.15;;;0.60;99.90;;;;;;5070185;28;20084;-87
2021/01/30 13:58:50;;;;;;;19.65;12.05;;;0.60;99.90;;;;;;5042940;28;20085;-90
2021/01/30 14:01:47;;;;;;;23.45;12.73;;;0.50;99.90;;;;;;5033330;28;20084;-87
2021/01/30 14:04:46;;;;;;;27.48;16.02;;;0.50;99.90;;;;;;5071290;28;20091;-89
2021/01/30 14:07:25;;;;;;;23.83;13.43;;;0.50;99.90;;;;;;5091967;28;20096;-89
2021/01/30 14:10:17;;;;;;;26.25;14.60;;;0.50;99.90;;;;;;5019886;28;20108;-89
2021/01/30 14:13:16;;;;;;;24.73;13.02;;;0.50;99.90;;;;;;5068643;28;20105;-88
2021/01/30 14:16:11;;;;;;;22.33;13.50;;;0.50;99.90;;;;;;5053045;28;20096;-88
2021/01/30 14:19:25;;;;;;;25.45;14.80;;;0.50;99.90;;;;;;5008781;28;20153;-91
2021/01/30 14:22:20;;;;;;;27.23;15.65;;;0.40;99.90;;;;;;5057325;28;20107;-87
2021/01/30 14:25:06;;;;;;;24.50;13.90;;;0.40;99.90;;;;;;5005213;28;20097;-86
2021/01/30 14:28:12;;;;;;;27.25;14.43;;;0.30;99.90;;;;;;5045239;28;20143;-89
2021/01/30 14:30:52;;;;;;;21.90;13.48;;;0.30;99.90;;;;;;5094706;28;20115;-90
2021/01/30 14:33:49;;;;;;;23.77;14.32;;;0.40;99.90;;;;;;5025083;28;20104;-89
2021/01/30 14:36:35;;;;;;;20.05;12.13;;;0.40;99.90;;;;;;5018791;28;20107;-86
2021/01/30 14:39:55;;;;;;;20.42;12.43;;;0.60;99.90;;;;;;5046271;28;20159;-88
2021/01/30 14:42:44;;;;;;;24.37;12.95;;;0.70;99.90;;;;;;5093524;28;20207;-91
2021/01/30 14:46:00;;;;;;;27.62;15.05;;;0.60;99.90;;;;;;5033100;28;20097;-91
2021/01/30 14:49:03;;;;;;;26.73;13.82;;;0.60;99.90;;;;;;5090537;28;20141;-88
2021/01/30 14:52:02;;;;;;;32.72;18.42;;;0.40;99.90;;;;;;5011362;28;20096;-89
2021/01/30 14:55:10;;;;;;;34.35;12.88;;;1.20;99.90;;;;;;5054728;28;20108;-87
2021/01/30 14:58:30;;;;;;;24.08;11.23;;;1.90;99.90;;;;;;5069276;28;20137;-87